sensor_id;sensor_type;location;lat;lon;timestamp;pressure;altitude;pressure_sealevel;temperature;humidity
13015;BME280;6573;57.696;11.950;2023-02-28T00:01:54;103077.22;;;4.91;100.00
13015;BME280;6573;57.696;11.950;2023-02-28T00:04:23;103076.59;;;4.80;100.00
13015;BME280;6573;57.696;11.950;2023-02-28T00:06:53;103053.59;;;4.73;100.00
13015;BME280;6573;57.696;11.950;2023-02-28T00:09:22;103068.41;;;4.74;100.00
13015;BME280;6573;57.696;11.950;2023-02-28T00:11:51;103078.53;;;4.68;100.00
13015;BME280;6573;57.696;11.950;2023-02-28T00:14:22;103053.34;;;4.54;100.00
13015;BME280;6573;57.696;11.950;2023-02-28T00:16:51;103080.94;;;4.65;100.00
13015;BME280;6573;57.696;11.950;2023-02-28T00:19:22;103064.66;;;4.69;100.00
13015;BME280;6573;57.696;11.950;2023-02-28T00:21:50;103069.72;;;4.66;100.00
13015;BME280;6573;57.696;11.950;2023-02-28T00:24:22;103073.78;;;4.61;100.00
13015;BME280;6573;57.696;11.950;2023-02-28T00:26:51;103083.03;;;4.56;100.00
13015;BME280;6573;57.696;11.950;2023-02-28T00:29:19;103070.69;;;4.68;100.00
13015;BME280;6573;57.696;11.950;2023-02-28T00:31:50;103036.88;;;4.39;100.00
13015;BME280;6573;57.696;11.950;2023-02-28T00:34:18;103075.28;;;4.57;100.00
13015;BME280;6573;57.696;11.950;2023-02-28T00:36:46;103040.63;;;4.44;100.00
13015;BME280;6573;57.696;11.950;2023-02-28T00:39:16;103062.59;;;4.78;100.00
13015;BME280;6573;57.696;11.950;2023-02-28T00:41:49;103062.44;;;4.91;100.00
13015;BME280;6573;57.696;11.950;2023-02-28T00:44:19;103065.63;;;4.86;100.00
13015;BME280;6573;57.696;11.950;2023-02-28T00:46:48;103067.16;;;4.82;100.00
13015;BME280;6573;57.696;11.950;2023-02-28T00:49:18;103057.22;;;4.91;100.00
13015;BME280;6573;57.696;11.950;2023-02-28T00:51:47;103041.75;;;4.94;100.00
13015;BME280;6573;57.696;11.950;2023-02-28T00:54:17;103065.09;;;5.07;100.00
13015;BME280;6573;57.696;11.950;2023-02-28T00:56:46;103038.88;;;4.74;100.00
13015;BME280;6573;57.696;11.950;2023-02-28T00:59:16;103061.97;;;4.68;100.00
13015;BME280;6573;57.696;11.950;2023-02-28T01:01:45;103065.78;;;4.58;100.00
13015;BME280;6573;57.696;11.950;2023-02-28T01:04:14;103055.69;;;4.64;100.00
13015;BME280;6573;57.696;11.950;2023-02-28T01:06:47;103063.34;;;4.61;100.00
13015;BME280;6573;57.696;11.950;2023-02-28T01:09:17;103058.81;;;4.73;100.00
13015;BME280;6573;57.696;11.950;2023-02-28T01:11:45;103058.06;;;4.90;100.00
13015;BME280;6573;57.696;11.950;2023-02-28T01:14:16;103053.94;;;4.79;100.00
13015;BME280;6573;57.696;11.950;2023-02-28T01:16:45;103047.06;;;4.65;100.00
13015;BME280;6573;57.696;11.950;2023-02-28T01:19:15;103046.69;;;4.59;100.00
13015;BME280;6573;57.696;11.950;2023-02-28T01:21:44;103041.06;;;4.82;100.00
13015;BME280;6573;57.696;11.950;2023-02-28T01:24:13;103053.22;;;5.12;100.00
13015;BME280;6573;57.696;11.950;2023-02-28T01:26:41;103048.22;;;5.01;100.00
13015;BME280;6573;57.696;11.950;2023-02-28T01:29:12;103052.84;;;5.06;100.00
13015;BME280;6573;57.696;11.950;2023-02-28T01:31:42;103048.00;;;5.12;100.00
13015;BME280;6573;57.696;11.950;2023-02-28T01:34:10;103050.25;;;5.06;100.00
13015;BME280;6573;57.696;11.950;2023-02-28T01:36:38;103058.69;;;4.86;100.00
13015;BME280;6573;57.696;11.950;2023-02-28T01:39:06;103038.59;;;4.69;100.00
13015;BME280;6573;57.696;11.950;2023-02-28T01:41:35;103049.00;;;4.69;100.00
13015;BME280;6573;57.696;11.950;2023-02-28T01:44:05;103036.91;;;4.55;100.00
13015;BME280;6573;57.696;11.950;2023-02-28T01:46:35;103045.81;;;4.58;100.00
13015;BME280;6573;57.696;11.950;2023-02-28T01:49:09;103036.44;;;4.62;100.00
13015;BME280;6573;57.696;11.950;2023-02-28T01:51:41;103038.00;;;4.89;100.00
13015;BME280;6573;57.696;11.950;2023-02-28T01:54:20;103041.44;;;4.88;100.00
13015;BME280;6573;57.696;11.950;2023-02-28T01:56:53;103026.03;;;4.62;100.00
13015;BME280;6573;57.696;11.950;2023-02-28T01:59:29;103041.47;;;4.59;100.00
13015;BME280;6573;57.696;11.950;2023-02-28T02:01:59;103032.94;;;4.62;100.00
13015;BME280;6573;57.696;11.950;2023-02-28T02:04:34;103017.59;;;4.66;100.00
13015;BME280;6573;57.696;11.950;2023-02-28T02:07:06;103031.31;;;4.78;100.00
13015;BME280;6573;57.696;11.950;2023-02-28T02:09:34;103028.69;;;4.78;100.00
13015;BME280;6573;57.696;11.950;2023-02-28T02:12:10;103023.31;;;4.75;100.00
13015;BME280;6573;57.696;11.950;2023-02-28T02:14:58;103012.50;;;4.69;100.00
13015;BME280;6573;57.696;11.950;2023-02-28T02:17:34;103013.97;;;4.64;100.00
13015;BME280;6573;57.696;11.950;2023-02-28T02:20:31;103023.72;;;4.52;100.00
13015;BME280;6573;57.696;11.950;2023-02-28T02:23:26;103026.28;;;4.21;100.00
13015;BME280;6573;57.696;11.950;2023-02-28T02:26:14;103024.84;;;4.12;100.00
13015;BME280;6573;57.696;11.950;2023-02-28T02:29:09;102995.72;;;3.89;100.00
13015;BME280;6573;57.696;11.950;2023-02-28T02:31:57;103027.72;;;4.02;100.00
13015;BME280;6573;57.696;11.950;2023-02-28T02:34:42;103008.66;;;3.88;100.00
13015;BME280;6573;57.696;11.950;2023-02-28T02:37:17;103009.03;;;3.94;100.00
13015;BME280;6573;57.696;11.950;2023-02-28T02:39:53;102990.19;;;3.83;100.00
13015;BME280;6573;57.696;11.950;2023-02-28T02:42:29;103000.06;;;4.04;100.00
13015;BME280;6573;57.696;11.950;2023-02-28T02:45:02;103005.44;;;4.21;100.00
13015;BME280;6573;57.696;11.950;2023-02-28T02:47:35;102995.63;;;4.32;100.00
13015;BME280;6573;57.696;11.950;2023-02-28T02:50:08;102997.50;;;4.49;100.00
13015;BME280;6573;57.696;11.950;2023-02-28T02:52:43;102999.44;;;4.53;100.00
13015;BME280;6573;57.696;11.950;2023-02-28T02:55:14;102997.38;;;4.47;100.00
13015;BME280;6573;57.696;11.950;2023-02-28T02:57:45;102989.41;;;4.30;100.00
13015;BME280;6573;57.696;11.950;2023-02-28T03:00:17;102993.41;;;4.09;100.00
13015;BME280;6573;57.696;11.950;2023-02-28T03:02:47;102990.53;;;3.89;100.00
13015;BME280;6573;57.696;11.950;2023-02-28T03:05:21;102997.72;;;3.93;100.00
13015;BME280;6573;57.696;11.950;2023-02-28T03:07:52;102996.03;;;4.09;100.00
13015;BME280;6573;57.696;11.950;2023-02-28T03:10:36;102999.88;;;4.01;100.00
13015;BME280;6573;57.696;11.950;2023-02-28T03:16:07;103009.56;;;3.88;100.00
13015;BME280;6573;57.696;11.950;2023-02-28T03:18:47;103008.22;;;3.80;100.00
13015;BME280;6573;57.696;11.950;2023-02-28T03:21:27;103009.03;;;3.79;100.00
13015;BME280;6573;57.696;11.950;2023-02-28T03:24:03;103005.09;;;3.86;100.00
13015;BME280;6573;57.696;11.950;2023-02-28T03:26:36;103006.53;;;3.96;100.00
13015;BME280;6573;57.696;11.950;2023-02-28T03:29:11;103008.22;;;3.80;100.00
13015;BME280;6573;57.696;11.950;2023-02-28T03:31:48;103009.66;;;3.75;100.00
13015;BME280;6573;57.696;11.950;2023-02-28T03:34:22;103002.22;;;3.67;100.00
13015;BME280;6573;57.696;11.950;2023-02-28T03:36:57;103000.59;;;3.69;100.00
13015;BME280;6573;57.696;11.950;2023-02-28T03:39:31;103000.41;;;3.80;100.00
13015;BME280;6573;57.696;11.950;2023-02-28T03:42:07;103001.66;;;3.72;100.00
13015;BME280;6573;57.696;11.950;2023-02-28T03:44:39;103001.50;;;3.69;100.00
13015;BME280;6573;57.696;11.950;2023-02-28T03:47:11;102964.03;;;3.67;100.00
13015;BME280;6573;57.696;11.950;2023-02-28T03:49:45;102990.38;;;4.01;100.00
13015;BME280;6573;57.696;11.950;2023-02-28T03:52:17;102983.97;;;4.11;100.00
13015;BME280;6573;57.696;11.950;2023-02-28T03:54:50;102984.34;;;4.17;100.00
13015;BME280;6573;57.696;11.950;2023-02-28T03:57:25;103001.94;;;4.06;100.00
13015;BME280;6573;57.696;11.950;2023-02-28T03:59:58;102974.91;;;3.60;100.00
13015;BME280;6573;57.696;11.950;2023-02-28T04:02:27;103007.41;;;3.81;100.00
13015;BME280;6573;57.696;11.950;2023-02-28T04:04:56;103006.84;;;3.72;100.00
13015;BME280;6573;57.696;11.950;2023-02-28T04:07:31;103014.38;;;3.53;100.00
13015;BME280;6573;57.696;11.950;2023-02-28T04:09:59;102996.78;;;3.49;100.00
13015;BME280;6573;57.696;11.950;2023-02-28T04:12:27;103017.63;;;3.64;100.00
13015;BME280;6573;57.696;11.950;2023-02-28T04:14:56;103007.53;;;3.55;100.00
13015;BME280;6573;57.696;11.950;2023-02-28T04:17:24;103011.44;;;3.62;100.00
13015;BME280;6573;57.696;11.950;2023-02-28T04:19:53;102999.16;;;3.59;100.00
13015;BME280;6573;57.696;11.950;2023-02-28T04:22:24;103004.50;;;3.62;100.00
13015;BME280;6573;57.696;11.950;2023-02-28T04:24:53;103001.31;;;3.66;100.00
13015;BME280;6573;57.696;11.950;2023-02-28T04:27:22;102997.34;;;3.58;100.00
13015;BME280;6573;57.696;11.950;2023-02-28T04:29:50;102965.56;;;3.49;100.00
13015;BME280;6573;57.696;11.950;2023-02-28T04:32:18;103001.91;;;3.62;100.00
13015;BME280;6573;57.696;11.950;2023-02-28T04:34:47;102997.13;;;3.55;100.00
13015;BME280;6573;57.696;11.950;2023-02-28T04:37:15;102995.72;;;3.60;100.00
13015;BME280;6573;57.696;11.950;2023-02-28T04:39:45;103008.72;;;3.60;100.00
13015;BME280;6573;57.696;11.950;2023-02-28T04:42:14;102997.84;;;3.53;100.00
13015;BME280;6573;57.696;11.950;2023-02-28T04:44:43;103007.94;;;3.61;100.00
13015;BME280;6573;57.696;11.950;2023-02-28T04:47:11;103010.81;;;3.66;100.00
13015;BME280;6573;57.696;11.950;2023-02-28T04:49:39;102981.91;;;3.61;100.00
13015;BME280;6573;57.696;11.950;2023-02-28T04:52:08;103006.38;;;3.65;100.00
13015;BME280;6573;57.696;11.950;2023-02-28T04:54:37;102994.47;;;3.68;100.00
13015;BME280;6573;57.696;11.950;2023-02-28T04:57:08;102991.88;;;3.68;100.00
13015;BME280;6573;57.696;11.950;2023-02-28T04:59:36;103000.47;;;3.67;100.00
13015;BME280;6573;57.696;11.950;2023-02-28T05:02:05;102999.94;;;3.58;100.00
13015;BME280;6573;57.696;11.950;2023-02-28T05:04:34;102999.66;;;3.54;100.00
13015;BME280;6573;57.696;11.950;2023-02-28T05:07:03;103000.72;;;3.57;100.00
13015;BME280;6573;57.696;11.950;2023-02-28T05:09:32;103002.53;;;3.58;100.00
13015;BME280;6573;57.696;11.950;2023-02-28T05:12:01;103003.97;;;3.53;100.00
13015;BME280;6573;57.696;11.950;2023-02-28T05:14:31;102991.59;;;3.49;100.00
13015;BME280;6573;57.696;11.950;2023-02-28T05:17:00;102993.38;;;3.50;100.00
13015;BME280;6573;57.696;11.950;2023-02-28T05:19:28;103003.97;;;3.53;100.00
13015;BME280;6573;57.696;11.950;2023-02-28T05:21:58;102988.03;;;3.62;100.00
13015;BME280;6573;57.696;11.950;2023-02-28T05:24:27;102981.00;;;3.75;100.00
13015;BME280;6573;57.696;11.950;2023-02-28T05:26:55;102992.84;;;3.70;100.00
13015;BME280;6573;57.696;11.950;2023-02-28T05:29:24;102990.31;;;3.57;100.00
13015;BME280;6573;57.696;11.950;2023-02-28T05:31:59;102991.94;;;3.55;100.00
13015;BME280;6573;57.696;11.950;2023-02-28T05:34:28;102968.41;;;3.39;100.00
13015;BME280;6573;57.696;11.950;2023-02-28T05:36:56;102964.66;;;3.49;100.00
13015;BME280;6573;57.696;11.950;2023-02-28T05:39:25;102986.47;;;3.65;100.00
13015;BME280;6573;57.696;11.950;2023-02-28T05:41:59;102969.25;;;3.67;100.00
13015;BME280;6573;57.696;11.950;2023-02-28T05:44:28;102977.69;;;3.78;100.00
13015;BME280;6573;57.696;11.950;2023-02-28T05:46:58;102888.72;;;3.12;100.00
13015;BME280;6573;57.696;11.950;2023-02-28T05:49:26;102964.69;;;3.63;100.00
13015;BME280;6573;57.696;11.950;2023-02-28T05:51:58;102946.53;;;3.50;100.00
13015;BME280;6573;57.696;11.950;2023-02-28T05:54:30;102954.78;;;3.43;100.00
13015;BME280;6573;57.696;11.950;2023-02-28T05:56:59;102973.13;;;3.59;100.00
13015;BME280;6573;57.696;11.950;2023-02-28T05:59:38;102961.09;;;3.61;100.00
13015;BME280;6573;57.696;11.950;2023-02-28T06:02:11;102971.50;;;3.61;100.00
13015;BME280;6573;57.696;11.950;2023-02-28T06:04:41;102948.34;;;3.51;100.00
13015;BME280;6573;57.696;11.950;2023-02-28T06:07:12;102962.53;;;3.56;100.00
13015;BME280;6573;57.696;11.950;2023-02-28T06:09:40;102971.50;;;3.61;100.00
13015;BME280;6573;57.696;11.950;2023-02-28T06:12:12;102968.97;;;3.48;100.00
13015;BME280;6573;57.696;11.950;2023-02-28T06:14:43;102972.75;;;3.53;100.00
13015;BME280;6573;57.696;11.950;2023-02-28T06:17:13;102977.59;;;3.47;100.00
13015;BME280;6573;57.696;11.950;2023-02-28T06:19:41;102950.66;;;3.32;100.00
13015;BME280;6573;57.696;11.950;2023-02-28T06:22:12;102958.91;;;3.40;100.00
13015;BME280;6573;57.696;11.950;2023-02-28T06:24:40;102972.38;;;3.47;100.00
13015;BME280;6573;57.696;11.950;2023-02-28T06:27:09;102980.44;;;3.37;100.00
13015;BME280;6573;57.696;11.950;2023-02-28T06:29:38;102973.44;;;3.36;100.00
13015;BME280;6573;57.696;11.950;2023-02-28T06:32:08;102986.38;;;3.49;100.00
13015;BME280;6573;57.696;11.950;2023-02-28T06:34:38;102988.34;;;3.53;100.00
13015;BME280;6573;57.696;11.950;2023-02-28T06:37:07;102962.38;;;3.40;100.00
13015;BME280;6573;57.696;11.950;2023-02-28T06:39:35;102992.81;;;3.41;100.00
13015;BME280;6573;57.696;11.950;2023-02-28T06:42:04;102972.69;;;3.24;100.00
13015;BME280;6573;57.696;11.950;2023-02-28T06:44:33;102984.28;;;3.29;100.00
13015;BME280;6573;57.696;11.950;2023-02-28T06:47:03;103014.38;;;3.53;100.00
13015;BME280;6573;57.696;11.950;2023-02-28T06:49:33;102996.06;;;3.37;100.00
13015;BME280;6573;57.696;11.950;2023-02-28T06:52:04;103018.94;;;3.57;100.00
13015;BME280;6573;57.696;11.950;2023-02-28T06:54:32;102995.53;;;3.57;100.00
13015;BME280;6573;57.696;11.950;2023-02-28T06:57:01;102966.75;;;3.54;100.00
13015;BME280;6573;57.696;11.950;2023-02-28T06:59:30;103023.94;;;3.82;100.00
13015;BME280;6573;57.696;11.950;2023-02-28T07:01:58;103015.03;;;3.78;100.00
13015;BME280;6573;57.696;11.950;2023-02-28T07:04:27;102902.47;;;3.24;100.00
13015;BME280;6573;57.696;11.950;2023-02-28T07:06:56;103025.13;;;4.02;100.00
13015;BME280;6573;57.696;11.950;2023-02-28T07:09:26;103038.13;;;4.02;100.00
13015;BME280;6573;57.696;11.950;2023-02-28T07:11:56;103027.16;;;3.92;100.00
13015;BME280;6573;57.696;11.950;2023-02-28T07:14:26;103024.34;;;3.75;100.00
13015;BME280;6573;57.696;11.950;2023-02-28T07:16:54;102957.81;;;3.36;100.00
13015;BME280;6573;57.696;11.950;2023-02-28T07:19:22;103047.47;;;3.98;100.00
13015;BME280;6573;57.696;11.950;2023-02-28T07:21:51;103053.38;;;3.96;100.00
13015;BME280;6573;57.696;11.950;2023-02-28T07:24:20;103056.78;;;3.94;100.00
13015;BME280;6573;57.696;11.950;2023-02-28T07:26:51;103049.81;;;3.93;100.00
13015;BME280;6573;57.696;11.950;2023-02-28T07:29:20;103052.94;;;4.03;100.00
13015;BME280;6573;57.696;11.950;2023-02-28T07:31:48;103017.66;;;3.78;100.00
13015;BME280;6573;57.696;11.950;2023-02-28T07:34:17;103041.53;;;4.15;100.00
13015;BME280;6573;57.696;11.950;2023-02-28T07:36:46;103054.09;;;4.37;100.00
13015;BME280;6573;57.696;11.950;2023-02-28T07:39:21;103031.47;;;4.36;100.00
13015;BME280;6573;57.696;11.950;2023-02-28T07:41:51;103031.09;;;4.30;100.00
13015;BME280;6573;57.696;11.950;2023-02-28T07:44:19;103037.56;;;4.51;100.00
13015;BME280;6573;57.696;11.950;2023-02-28T07:46:48;103023.56;;;4.49;100.00
13015;BME280;6573;57.696;11.950;2023-02-28T07:49:16;103041.84;;;4.65;100.00
13015;BME280;6573;57.696;11.950;2023-02-28T07:51:46;103000.91;;;4.48;100.00
13015;BME280;6573;57.696;11.950;2023-02-28T07:54:15;103046.69;;;4.74;100.00
13015;BME280;6573;57.696;11.950;2023-02-28T07:56:43;103044.34;;;4.78;100.00
13015;BME280;6573;57.696;11.950;2023-02-28T07:59:13;103034.97;;;4.82;100.00
13015;BME280;6573;57.696;11.950;2023-02-28T08:01:41;103040.56;;;4.73;100.00
13015;BME280;6573;57.696;11.950;2023-02-28T08:04:11;103038.94;;;4.75;100.00
13015;BME280;6573;57.696;11.950;2023-02-28T08:06:40;103046.66;;;4.88;100.00
13015;BME280;6573;57.696;11.950;2023-02-28T08:09:08;103045.38;;;4.82;100.00
13015;BME280;6573;57.696;11.950;2023-02-28T08:11:38;103042.22;;;4.71;100.00
13015;BME280;6573;57.696;11.950;2023-02-28T08:14:07;103049.88;;;4.84;100.00
13015;BME280;6573;57.696;11.950;2023-02-28T08:16:37;103031.16;;;4.91;100.00
13015;BME280;6573;57.696;11.950;2023-02-28T08:19:06;103035.88;;;4.82;100.00
13015;BME280;6573;57.696;11.950;2023-02-28T08:21:34;103043.38;;;4.92;100.00
13015;BME280;6573;57.696;11.950;2023-02-28T08:24:03;103031.00;;;4.88;100.00
13015;BME280;6573;57.696;11.950;2023-02-28T08:26:32;103026.63;;;5.03;100.00
13015;BME280;6573;57.696;11.950;2023-02-28T08:29:01;103040.03;;;5.26;100.00
13015;BME280;6573;57.696;11.950;2023-02-28T08:31:29;103028.25;;;5.34;100.00
13015;BME280;6573;57.696;11.950;2023-02-28T08:34:00;103015.50;;;5.38;100.00
13015;BME280;6573;57.696;11.950;2023-02-28T08:36:28;103027.63;;;5.54;100.00
13015;BME280;6573;57.696;11.950;2023-02-28T08:38:57;103022.88;;;5.47;100.00
13015;BME280;6573;57.696;11.950;2023-02-28T08:41:26;103030.66;;;5.45;100.00
13015;BME280;6573;57.696;11.950;2023-02-28T08:43:55;103027.94;;;5.60;100.00
13015;BME280;6573;57.696;11.950;2023-02-28T08:46:24;103029.59;;;5.58;100.00
13015;BME280;6573;57.696;11.950;2023-02-28T08:48:53;103045.09;;;5.55;100.00
13015;BME280;6573;57.696;11.950;2023-02-28T08:51:23;103039.22;;;5.43;100.00
13015;BME280;6573;57.696;11.950;2023-02-28T08:53:55;103038.06;;;5.70;100.00
13015;BME280;6573;57.696;11.950;2023-02-28T08:56:24;103039.94;;;5.88;100.00
13015;BME280;6573;57.696;11.950;2023-02-28T08:58:54;103035.94;;;5.95;100.00
13015;BME280;6573;57.696;11.950;2023-02-28T09:01:26;103042.44;;;5.71;100.00
13015;BME280;6573;57.696;11.950;2023-02-28T09:03:56;103032.63;;;5.33;100.00
13015;BME280;6573;57.696;11.950;2023-02-28T09:06:27;103016.53;;;5.42;100.00
13015;BME280;6573;57.696;11.950;2023-02-28T09:08:57;103051.13;;;5.70;100.00
13015;BME280;6573;57.696;11.950;2023-02-28T09:11:28;103038.47;;;5.77;100.00
13015;BME280;6573;57.696;11.950;2023-02-28T09:13:57;103060.41;;;5.81;100.00
13015;BME280;6573;57.696;11.950;2023-02-28T09:16:27;103020.91;;;5.59;100.00
13015;BME280;6573;57.696;11.950;2023-02-28T09:18:55;103038.69;;;5.66;100.00
13015;BME280;6573;57.696;11.950;2023-02-28T09:21:26;103067.63;;;5.85;100.00
13015;BME280;6573;57.696;11.950;2023-02-28T09:23:55;103055.34;;;5.84;100.00
13015;BME280;6573;57.696;11.950;2023-02-28T09:26:25;103068.44;;;5.68;100.00
13015;BME280;6573;57.696;11.950;2023-02-28T09:29:08;103070.75;;;5.63;100.00
13015;BME280;6573;57.696;11.950;2023-02-28T09:31:38;103070.72;;;5.78;100.00
13015;BME280;6573;57.696;11.950;2023-02-28T09:34:06;103065.00;;;5.85;100.00
13015;BME280;6573;57.696;11.950;2023-02-28T09:36:35;103065.31;;;6.07;100.00
13015;BME280;6573;57.696;11.950;2023-02-28T09:39:12;102941.16;;;5.32;100.00
13015;BME280;6573;57.696;11.950;2023-02-28T09:41:44;103050.13;;;5.84;100.00
13015;BME280;6573;57.696;11.950;2023-02-28T09:44:22;103057.19;;;5.85;100.00
13015;BME280;6573;57.696;11.950;2023-02-28T09:46:57;103007.69;;;5.88;100.00
13015;BME280;6573;57.696;11.950;2023-02-28T09:49:33;103043.84;;;6.48;100.00
13015;BME280;6573;57.696;11.950;2023-02-28T09:52:05;103052.78;;;6.35;100.00
13015;BME280;6573;57.696;11.950;2023-02-28T09:54:36;103052.22;;;6.59;100.00
13015;BME280;6573;57.696;11.950;2023-02-28T09:57:07;103052.34;;;6.97;100.00
13015;BME280;6573;57.696;11.950;2023-02-28T09:59:50;103053.69;;;6.89;100.00
13015;BME280;6573;57.696;11.950;2023-02-28T10:02:46;103037.81;;;6.67;100.00
13015;BME280;6573;57.696;11.950;2023-02-28T10:05:19;103047.72;;;6.74;100.00
13015;BME280;6573;57.696;11.950;2023-02-28T10:08:00;103051.63;;;6.82;100.00
13015;BME280;6573;57.696;11.950;2023-02-28T10:10:37;103026.50;;;6.68;100.00
13015;BME280;6573;57.696;11.950;2023-02-28T10:13:13;103049.22;;;6.69;100.00
13015;BME280;6573;57.696;11.950;2023-02-28T10:15:45;103066.56;;;7.02;100.00
13015;BME280;6573;57.696;11.950;2023-02-28T10:18:16;103055.44;;;6.71;100.00
13015;BME280;6573;57.696;11.950;2023-02-28T10:20:49;103072.53;;;6.46;100.00
13015;BME280;6573;57.696;11.950;2023-02-28T10:23:23;103057.00;;;6.49;100.00
13015;BME280;6573;57.696;11.950;2023-02-28T10:25:55;103068.56;;;6.90;100.00
13015;BME280;6573;57.696;11.950;2023-02-28T10:28:26;103041.31;;;6.67;100.00
13015;BME280;6573;57.696;11.950;2023-02-28T10:30:58;103070.44;;;6.92;100.00
13015;BME280;6573;57.696;11.950;2023-02-28T10:33:29;103064.31;;;6.74;100.00
13015;BME280;6573;57.696;11.950;2023-02-28T10:35:58;103046.66;;;6.88;100.00
13015;BME280;6573;57.696;11.950;2023-02-28T10:38:32;103068.59;;;7.27;100.00
13015;BME280;6573;57.696;11.950;2023-02-28T10:41:05;103080.84;;;7.28;100.00
13015;BME280;6573;57.696;11.950;2023-02-28T10:43:34;103066.97;;;7.11;100.00
13015;BME280;6573;57.696;11.950;2023-02-28T10:46:09;103081.91;;;7.31;100.00
13015;BME280;6573;57.696;11.950;2023-02-28T10:48:44;103086.03;;;7.26;100.00
13015;BME280;6573;57.696;11.950;2023-02-28T10:51:16;103083.56;;;7.29;100.00
13015;BME280;6573;57.696;11.950;2023-02-28T10:53:52;103077.22;;;7.43;100.00
13015;BME280;6573;57.696;11.950;2023-02-28T10:56:28;103081.91;;;7.31;100.00
13015;BME280;6573;57.696;11.950;2023-02-28T10:59:00;103078.44;;;7.32;100.00
13015;BME280;6573;57.696;11.950;2023-02-28T11:01:36;102948.59;;;6.25;100.00
13015;BME280;6573;57.696;11.950;2023-02-28T11:04:17;103086.59;;;6.84;100.00
13015;BME280;6573;57.696;11.950;2023-02-28T11:06:56;103071.78;;;7.02;100.00
13015;BME280;6573;57.696;11.950;2023-02-28T11:09:30;103063.97;;;7.21;100.00
13015;BME280;6573;57.696;11.950;2023-02-28T11:12:00;103061.75;;;7.30;100.00
13015;BME280;6573;57.696;11.950;2023-02-28T11:14:30;103077.38;;;7.46;100.00
13015;BME280;6573;57.696;11.950;2023-02-28T11:17:13;103064.13;;;7.24;100.00
13015;BME280;6573;57.696;11.950;2023-02-28T11:19:45;103063.72;;;7.53;100.00
13015;BME280;6573;57.696;11.950;2023-02-28T11:22:18;103061.78;;;7.49;100.00
13015;BME280;6573;57.696;11.950;2023-02-28T11:24:50;103052.13;;;7.67;100.00
13015;BME280;6573;57.696;11.950;2023-02-28T11:27:26;103048.84;;;7.71;100.00
13015;BME280;6573;57.696;11.950;2023-02-28T11:30:24;103033.75;;;7.87;100.00
13015;BME280;6573;57.696;11.950;2023-02-28T11:33:00;103029.19;;;8.02;100.00
13015;BME280;6573;57.696;11.950;2023-02-28T11:35:32;103022.81;;;8.16;100.00
13015;BME280;6573;57.696;11.950;2023-02-28T11:38:07;103028.97;;;8.37;100.00
13015;BME280;6573;57.696;11.950;2023-02-28T11:40:43;103031.03;;;8.44;100.00
13015;BME280;6573;57.696;11.950;2023-02-28T11:43:27;103032.31;;;8.33;100.00
13015;BME280;6573;57.696;11.950;2023-02-28T11:46:13;103005.66;;;8.24;100.00
13015;BME280;6573;57.696;11.950;2023-02-28T11:48:54;103030.09;;;8.23;100.00
13015;BME280;6573;57.696;11.950;2023-02-28T11:51:33;102998.00;;;8.08;100.00
13015;BME280;6573;57.696;11.950;2023-02-28T11:54:32;103000.94;;;7.95;100.00
13015;BME280;6573;57.696;11.950;2023-02-28T11:57:16;103032.53;;;8.18;100.00
13015;BME280;6573;57.696;11.950;2023-02-28T11:59:59;103029.25;;;8.24;100.00
13015;BME280;6573;57.696;11.950;2023-02-28T12:02:38;103026.34;;;8.37;100.00
13015;BME280;6573;57.696;11.950;2023-02-28T12:05:25;103026.13;;;8.12;100.00
13015;BME280;6573;57.696;11.950;2023-02-28T12:08:08;103004.72;;;7.61;100.00
13015;BME280;6573;57.696;11.950;2023-02-28T12:10:57;103024.19;;;7.87;100.00
13015;BME280;6573;57.696;11.950;2023-02-28T12:13:41;103016.03;;;8.21;100.00
13015;BME280;6573;57.696;11.950;2023-02-28T12:16:26;103019.41;;;7.98;100.00
13015;BME280;6573;57.696;11.950;2023-02-28T12:19:05;103004.06;;;8.07;100.00
13015;BME280;6573;57.696;11.950;2023-02-28T12:21:57;102992.94;;;8.12;100.00
13015;BME280;6573;57.696;11.950;2023-02-28T12:24:51;103004.16;;;8.29;100.00
13015;BME280;6573;57.696;11.950;2023-02-28T12:27:27;102986.56;;;8.26;100.00
13015;BME280;6573;57.696;11.950;2023-02-28T12:30:02;102995.94;;;8.21;100.00
13015;BME280;6573;57.696;11.950;2023-02-28T12:32:35;103004.16;;;8.29;100.00
13015;BME280;6573;57.696;11.950;2023-02-28T12:35:11;102988.28;;;8.26;100.00
13015;BME280;6573;57.696;11.950;2023-02-28T12:37:44;102987.63;;;8.52;100.00
13015;BME280;6573;57.696;11.950;2023-02-28T12:40:19;102977.00;;;8.49;100.00
13015;BME280;6573;57.696;11.950;2023-02-28T12:42:51;102989.06;;;8.66;100.00
13015;BME280;6573;57.696;11.950;2023-02-28T12:45:23;102972.25;;;8.61;100.00
13015;BME280;6573;57.696;11.950;2023-02-28T12:47:55;102972.03;;;8.77;100.00
13015;BME280;6573;57.696;11.950;2023-02-28T12:50:25;102960.69;;;8.78;100.00
13015;BME280;6573;57.696;11.950;2023-02-28T12:53:00;102957.69;;;8.91;100.00
13015;BME280;6573;57.696;11.950;2023-02-28T12:55:37;102963.31;;;9.00;100.00
13015;BME280;6573;57.696;11.950;2023-02-28T12:58:12;102965.34;;;9.07;100.00
13015;BME280;6573;57.696;11.950;2023-02-28T13:00:55;102959.38;;;9.13;100.00
13015;BME280;6573;57.696;11.950;2023-02-28T13:03:57;102960.84;;;9.29;100.00
13015;BME280;6573;57.696;11.950;2023-02-28T13:06:43;102948.19;;;9.66;100.00
13015;BME280;6573;57.696;11.950;2023-02-28T13:09:18;102937.78;;;9.44;100.00
13015;BME280;6573;57.696;11.950;2023-02-28T13:11:49;102948.09;;;9.63;100.00
13015;BME280;6573;57.696;11.950;2023-02-28T13:14:22;102956.16;;;9.44;100.00
13015;BME280;6573;57.696;11.950;2023-02-28T13:16:57;102954.91;;;9.58;100.00
13015;BME280;6573;57.696;11.950;2023-02-28T13:19:28;102936.47;;;9.56;100.00
13015;BME280;6573;57.696;11.950;2023-02-28T13:21:58;102952.47;;;9.39;100.00